Terminal Aerodrome Forecast
Issued by NWS Twin Cities, MN

Home | Current Version | Previous Version | Text Only | Print | Product List | Glossary On
Versions: 1 2 3 4 5 6 7 8 9 10 11 12 13 14 15 16 17 18 19 20 21
788
FTUS43 KMPX 050520
TAFSTC
TAF
KSTC 050520Z 0506/0606 22007KT P6SM FEW025 SCT250
     FM050900 19004KT 4SM BR FEW030 SCT200
     FM051400 13010KT P6SM OVC100
     FM051900 14011G17KT P6SM OVC050
     FM060200 23012KT P6SM OVC035=

USA.gov is the U.S. government's official web portal to all federal, state and local government web resources and services.